Time;durP1;ratioP1;P1;durP2;ratioP2;P2;SDS_P1;SDS_P2;PMS_P1;PMS_P2;Temp;Humidity;BMP_temperature;BMP_pressure;BME280_temperature;BME280_humidity;BME280_pressure;Samples;Min_cycle;Max_cycle;Signal;HPM_P1;HPM_P2
2021/11/06 00:04:53;;;;;;;;;;;6.40;99.90;;;5.27;100.00;96754.94;10489552;28;1211;-74
2021/11/06 00:09:56;;;;;;;;;;;6.40;99.90;;;5.24;100.00;96758.06;10491161;28;765;-75
2021/11/06 00:14:58;;;;;;;;;;;6.40;99.90;;;5.28;100.00;96756.63;10489734;28;1954;-75
2021/11/06 00:20:01;;;;;;;;;;;6.30;99.90;;;5.28;100.00;96748.63;10479846;28;1199;-74
2021/11/06 00:25:04;;;;;;;;;;;6.30;99.90;;;5.28;100.00;96759.28;10472481;28;1358;-73
2021/11/06 00:30:07;;;;;;;;;;;6.30;99.90;;;5.19;100.00;96749.88;10489957;28;856;-75
2021/11/06 00:35:10;;;;;;;;;;;6.30;99.90;;;5.27;100.00;96751.47;10488935;28;1975;-75
2021/11/06 00:40:13;;;;;;;;;;;6.30;99.90;;;5.21;100.00;96749.66;10490932;28;1006;-75
2021/11/06 00:45:16;;;;;;;;;;;6.30;99.90;;;5.24;100.00;96749.25;10469691;28;1279;-73
2021/11/06 00:50:19;;;;;;;;;;;6.30;99.90;;;5.19;100.00;96744.56;10488326;28;1066;-75
2021/11/06 00:55:22;;;;;;;;;;;6.30;99.90;;;5.18;100.00;96742.13;10470510;28;1980;-73
2021/11/06 01:00:24;;;;;;;;;;;6.20;99.90;;;5.20;100.00;96746.19;10490013;28;836;-75
2021/11/06 01:05:27;;;;;;;;;;;6.30;99.90;;;5.23;100.00;96755.63;10487070;28;1311;-73
2021/11/06 01:10:31;;;;;;;;;;;6.30;99.90;;;5.20;100.00;96751.53;10507687;28;1066;-72
2021/11/06 01:15:34;;;;;;;;;;;6.30;99.90;;;5.20;100.00;96754.19;10490349;28;1913;-74
2021/11/06 01:20:37;;;;;;;;;;;6.20;99.90;;;5.22;100.00;96748.66;10507856;28;784;-73
2021/11/06 01:25:40;;;;;;;;;;;6.20;99.90;;;5.18;100.00;96753.59;10516339;28;1294;-75
2021/11/06 01:30:43;;;;;;;;;;;6.20;99.90;;;5.09;100.00;96750.38;10514221;28;781;-73
2021/11/06 01:35:46;;;;;;;;;;;6.20;99.90;;;5.13;100.00;96745.41;10499692;28;1905;-75
2021/11/06 01:40:48;;;;;;;;;;;6.10;99.90;;;5.19;100.00;96739.22;10511685;28;1053;-74
2021/11/06 01:45:52;;;;;;;;;;;6.20;99.90;;;5.21;100.00;96741.66;10470272;28;1239;-74
2021/11/06 01:50:54;;;;;;;;;;;6.20;99.90;;;5.19;100.00;96739.22;10471826;28;1540;-75
2021/11/06 01:55:57;;;;;;;;;;;6.20;99.90;;;5.19;100.00;96749.88;10489032;28;1910;-74
2021/11/06 02:01:00;;;;;;;;;;;6.20;99.90;;;5.22;100.00;96746.00;10484286;28;1089;-74
2021/11/06 02:06:03;;;;;;;;;;;6.10;99.90;;;5.22;100.00;96738.81;10468685;28;1296;-74
2021/11/06 02:11:06;;;;;;;;;;;6.20;99.90;;;5.22;100.00;96735.34;10487340;28;788;-74
2021/11/06 02:16:10;;;;;;;;;;;6.20;99.90;;;5.20;100.00;96735.53;10469806;28;1909;-74
2021/11/06 02:21:13;;;;;;;;;;;6.30;99.90;;;5.19;100.00;96728.56;10497462;28;832;-74
2021/11/06 02:26:16;;;;;;;;;;;6.30;99.90;;;5.16;100.00;96726.34;10495373;28;1315;-74
2021/11/06 02:31:38;;;;;;;;;;;6.20;99.90;;;5.15;100.00;96727.34;10475829;28;1243;-74
2021/11/06 02:36:42;;;;;;;;;;;6.20;99.90;;;5.11;100.00;96726.16;10494628;28;1977;-74
2021/11/06 02:41:45;;;;;;;;;;;6.20;99.90;;;5.14;100.00;96731.06;10492951;28;1333;-74
2021/11/06 02:46:48;;;;;;;;;;;6.20;99.90;;;5.18;100.00;96734.94;10494598;28;1173;-75
2021/11/06 02:51:50;;;;;;;;;;;6.20;99.90;;;5.17;100.00;96735.16;10495329;28;847;-73
2021/11/06 02:56:53;;;;;;;;;;;6.20;99.90;;;5.08;100.00;96738.06;10493344;28;1965;-73
2021/11/06 03:01:56;;;;;;;;;;;6.20;99.90;;;5.13;100.00;96729.44;10492584;28;1006;-72
2021/11/06 03:06:59;;;;;;;;;;;6.20;99.90;;;5.12;100.00;96730.47;10494205;28;1309;-73
2021/11/06 03:12:02;;;;;;;;;;;6.20;99.90;;;5.14;100.00;96736.38;10492321;28;1375;-73
2021/11/06 03:17:04;;;;;;;;;;;6.20;99.90;;;5.11;100.00;96742.16;10491759;28;1906;-73
2021/11/06 03:22:08;;;;;;;;;;;6.20;99.90;;;5.16;100.00;96742.34;10492837;28;726;-74
2021/11/06 03:27:10;;;;;;;;;;;6.20;99.90;;;5.23;100.00;96744.97;10491484;28;1185;-74
2021/11/06 03:32:13;;;;;;;;;;;6.20;99.90;;;5.23;100.00;96750.28;10489108;28;744;-73
2021/11/06 03:37:16;;;;;;;;;;;6.30;99.90;;;5.26;100.00;96744.50;10499333;28;1914;-73
2021/11/06 03:42:19;;;;;;;;;;;6.30;99.90;;;5.18;100.00;96750.13;10490870;28;1006;-74
2021/11/06 03:47:22;;;;;;;;;;;6.30;99.90;;;5.20;100.00;96756.03;10470716;28;1507;-74
2021/11/06 03:52:25;;;;;;;;;;;6.30;99.90;;;5.30;100.00;96757.19;10491263;28;780;-75
2021/11/06 03:57:28;;;;;;;;;;;6.30;99.90;;;5.29;100.00;96760.91;10490347;28;1989;-74
2021/11/06 04:02:33;;;;;;;;;;;6.30;99.90;;;5.24;100.00;96752.72;10490878;28;729;-74
2021/11/06 04:07:36;;;;;;;;;;;6.30;99.90;;;5.28;100.00;96759.28;10490944;28;843;-74
2021/11/06 04:12:39;;;;;;;;;;;6.30;99.90;;;5.31;100.00;96764.16;10471792;28;1235;-74
2021/11/06 04:18:01;;;;;;;;;;;6.40;99.90;;;5.27;100.00;96754.94;10471807;28;1942;-73
2021/11/06 04:23:04;;;;;;;;;;;6.30;99.90;;;5.21;100.00;96758.47;10489673;28;1252;-74
2021/11/06 04:28:07;;;;;;;;;;;6.20;99.90;;;5.07;100.00;96748.94;10490003;28;734;-74
2021/11/06 04:33:10;;;;;;;;;;;6.20;99.90;;;5.17;100.00;96756.47;10487537;28;1200;-73
2021/11/06 04:38:13;;;;;;;;;;;6.20;99.90;;;5.15;100.00;96748.69;10489733;28;1917;-74
2021/11/06 04:43:16;;;;;;;;;;;6.20;99.90;;;5.09;100.00;96749.53;10488946;28;1204;-73
2021/11/06 04:48:19;;;;;;;;;;;6.20;99.90;;;5.07;100.00;96755.09;10488462;28;820;-73
2021/11/06 04:53:23;;;;;;;;;;;6.10;99.90;;;4.91;100.00;96757.47;10489821;28;1213;-73
2021/11/06 04:58:31;;;;;;;;;;;6.10;99.90;;;4.62;100.00;96756.97;10490330;28;1964;-74
2021/11/06 05:03:34;;;;;;;;;;;5.90;99.90;;;4.40;100.00;96760.97;10487629;28;1307;-73
2021/11/06 05:08:37;;;;;;;;;;;5.80;99.90;;;4.28;100.00;96760.81;10489945;28;1077;-74
2021/11/06 05:13:40;;;;;;;;;;;5.70;99.90;;;4.14;100.00;96768.00;10488528;28;1185;-74
2021/11/06 05:18:43;;;;;;;;;;;5.40;99.90;;;4.04;100.00;96765.75;10487607;28;1923;-73
2021/11/06 05:23:47;;;;;;;;;;;5.30;99.90;;;3.96;100.00;96760.66;10488168;28;1272;-74
2021/11/06 05:28:50;;;;;;;;;;;5.30;99.90;;;3.86;100.00;96764.78;10487656;28;1076;-75
2021/11/06 05:33:55;;;;;;;;;;;5.10;99.90;;;3.72;100.00;96769.28;10487316;28;1319;-75
2021/11/06 05:38:58;;;;;;;;;;;5.10;99.90;;;3.48;100.00;96778.69;10489467;28;1965;-74
2021/11/06 05:44:01;;;;;;;;;;;4.90;99.90;;;3.29;100.00;96771.53;10469254;28;1338;-75
2021/11/06 05:49:04;;;;;;;;;;;4.70;99.90;;;3.16;100.00;96775.81;10469595;28;1667;-75
2021/11/06 05:54:13;;;;;;;;;;;4.50;99.90;;;3.10;100.00;96776.63;10467019;28;1274;-74
2021/11/06 05:59:16;;;;;;;;;;;4.40;99.90;;;3.04;100.00;96780.06;10487665;28;1967;-73
2021/11/06 06:04:19;;;;;;;;;;;4.40;99.90;;;3.02;100.00;96783.97;10487446;28;1204;-74
2021/11/06 06:09:22;;;;;;;;;;;4.20;99.90;;;2.92;100.00;96789.66;10488159;28;808;-75
2021/11/06 06:14:25;;;;;;;;;;;4.20;99.90;;;2.82;100.00;96802.50;10468229;28;1502;-75
2021/11/06 06:19:28;;;;;;;;;;;4.10;99.90;;;2.84;100.00;96801.28;10488829;28;1905;-75
2021/11/06 06:24:32;;;;;;;;;;;4.10;99.90;;;2.91;100.00;96806.59;10487960;28;1217;-76
2021/11/06 06:29:34;;;;;;;;;;;4.10;99.90;;;2.92;100.00;96801.09;10501189;28;993;-75
2021/11/06 06:34:37;;;;;;;;;;;4.10;99.90;;;2.91;100.00;96812.72;10523547;28;1173;-75
2021/11/06 06:39:40;;;;;;;;;;;4.10;99.90;;;3.12;100.00;96822.41;10527779;28;1949;-75
2021/11/06 06:44:43;;;;;;;;;;;4.10;99.90;;;3.11;100.00;96819.94;10528842;28;1209;-75
2021/11/06 06:49:47;;;;;;;;;;;4.30;99.90;;;2.99;100.00;96825.03;10524755;28;1007;-75
2021/11/06 06:54:49;;;;;;;;;;;4.20;99.90;;;2.94;100.00;96825.63;10523566;28;1189;-76
2021/11/06 06:59:52;;;;;;;;;;;4.10;99.90;;;2.95;100.00;96832.56;10525916;28;1953;-74
2021/11/06 07:04:56;;;;;;;;;;;4.10;99.90;;;2.95;100.00;96834.41;10513725;28;1267;-75
2021/11/06 07:09:59;;;;;;;;;;;4.10;99.90;;;3.04;100.00;96833.19;10510537;28;1074;-75
2021/11/06 07:15:02;;;;;;;;;;;4.10;99.90;;;3.17;100.00;96830.56;10488757;28;1308;-75
2021/11/06 07:20:09;;;;;;;;;;;4.20;99.90;;;3.38;100.00;96842.09;10504314;28;1926;-75
2021/11/06 07:25:12;;;;;;;;;;;4.30;99.90;;;3.43;100.00;96844.94;10493374;28;1334;-75
2021/11/06 07:30:15;;;;;;;;;;;4.40;99.90;;;3.53;100.00;96840.88;10494678;28;894;-75
2021/11/06 07:35:18;;;;;;;;;;;4.50;99.90;;;3.65;100.00;96848.25;10472352;28;1300;-75
2021/11/06 07:40:22;;;;;;;;;;;4.60;99.90;;;3.74;100.00;96858.47;10490621;28;1973;-75
2021/11/06 07:45:25;;;;;;;;;;;4.70;99.90;;;3.99;100.00;96861.34;10490563;28;1181;-77
2021/11/06 07:50:28;;;;;;;;;;;4.80;99.90;;;4.14;100.00;96863.00;10491166;28;1066;-76
2021/11/06 07:55:30;;;;;;;;;;;5.00;99.90;;;4.28;100.00;96869.94;10492997;28;1292;-72
2021/11/06 08:00:33;;;;;;;;;;;5.10;99.90;;;4.38;100.00;96874.81;10492138;28;1905;-73
2021/11/06 08:05:36;;;;;;;;;;;5.30;99.90;;;4.53;100.00;96872.75;10486832;28;1165;-74
2021/11/06 08:10:39;;;;;;;;;;;5.50;99.90;;;4.77;100.00;96877.41;10492766;28;1081;-73
2021/11/06 08:15:42;;;;;;;;;;;5.50;99.90;;;5.23;100.00;96871.06;10491167;28;1204;-73
2021/11/06 08:20:45;;;;;;;;;;;5.80;99.90;;;5.83;100.00;96870.69;10488868;28;1921;-73
2021/11/06 08:25:48;;;;;;;;;;;6.30;99.90;;;6.14;99.07;96868.00;10472408;28;1412;-74
2021/11/06 08:30:51;;;;;;;;;;;6.60;99.90;;;6.28;96.90;96865.22;10490560;28;830;-72
2021/11/06 08:35:54;;;;;;;;;;;6.80;99.90;;;6.06;95.01;96867.47;10487561;28;1296;-74
2021/11/06 08:40:57;;;;;;;;;;;7.00;99.90;;;5.73;96.39;96863.19;10490175;28;1985;-72
2021/11/06 08:46:00;;;;;;;;;;;6.80;99.90;;;5.67;98.58;96854.19;10483710;28;1232;-74
2021/11/06 08:51:03;;;;;;;;;;;6.70;99.90;;;5.73;99.04;96860.50;10487881;28;827;-73
2021/11/06 08:56:06;;;;;;;;;;;6.60;99.90;;;5.95;98.16;96861.78;10487312;28;1201;-75
2021/11/06 09:01:09;;;;;;;;;;;6.70;99.90;;;5.80;99.34;96847.94;10490033;28;1918;-76
2021/11/06 09:06:11;;;;;;;;;;;6.80;99.90;;;6.04;98.81;96843.63;10490062;28;1283;-75
2021/11/06 09:11:14;;;;;;;;;;;6.80;99.90;;;6.31;96.62;96843.44;10487125;28;895;-74
2021/11/06 09:16:17;;;;;;;;;;;7.00;99.90;;;6.27;95.92;96853.72;10480241;28;1161;-74
2021/11/06 09:21:21;;;;;;;;;;;7.20;99.90;;;6.28;94.29;96862.53;10485494;28;1902;-76
2021/11/06 09:26:24;;;;;;;;;;;7.10;99.90;;;6.33;94.76;96860.84;10488181;28;1225;-75
2021/11/06 09:31:27;;;;;;;;;;;7.10;99.90;;;6.10;95.98;96869.47;10488164;28;927;-76
2021/11/06 09:36:31;;;;;;;;;;;7.10;99.90;;;6.32;95.11;96867.22;10487937;28;1304;-76
2021/11/06 09:41:34;;;;;;;;;;;7.10;99.90;;;6.14;95.28;96864.50;10488478;28;2002;-76
2021/11/06 09:46:37;;;;;;;;;;;7.10;99.90;;;6.35;93.93;96856.09;10487875;28;1311;-76
2021/11/06 09:51:39;;;;;;;;;;;7.20;99.90;;;6.63;93.76;96854.81;10486820;28;779;-74
2021/11/06 09:56:43;;;;;;;;;;;7.40;99.90;;;7.15;91.13;96855.22;10467966;28;1324;-76
2021/11/06 10:01:46;;;;;;;;;;;7.60;99.90;;;7.41;87.18;96846.84;10468367;28;1970;-76
2021/11/06 10:06:49;;;;;;;;;;;8.00;99.90;;;7.91;82.97;96848.38;10483700;28;1315;-75
2021/11/06 10:11:52;;;;;;;;;;;8.40;99.90;;;8.14;81.98;96848.41;10491461;28;804;-75
2021/11/06 10:16:55;;;;;;;;;;;8.70;99.90;;;8.06;78.63;96852.25;10487289;28;1247;-74
2021/11/06 10:21:58;;;;;;;;;;;8.90;99.90;;;8.08;77.69;96844.81;10486457;28;1992;-76
2021/11/06 10:27:01;;;;;;;;;;;8.90;99.90;;;7.58;77.14;96847.84;10488876;28;1283;-76
2021/11/06 10:32:04;;;;;;;;;;;8.80;99.90;;;7.44;78.79;96841.03;10488841;28;892;-76
2021/11/06 10:37:10;;;;;;;;;;;8.50;99.90;;;7.26;79.29;96833.88;10498641;28;1302;-76
2021/11/06 10:42:13;;;;;;;;;;;8.30;99.90;;;7.27;78.67;96832.84;10493841;28;1975;-75
2021/11/06 10:47:16;;;;;;;;;;;8.30;99.90;;;7.27;78.95;96826.69;10497250;28;1204;-75
2021/11/06 10:52:19;;;;;;;;;;;8.20;99.90;;;7.22;79.87;96811.31;10496710;28;721;-75
2021/11/06 10:57:22;;;;;;;;;;;8.10;99.90;;;7.17;79.41;96805.81;10497642;28;1252;-75
2021/11/06 11:02:25;;;;;;;;;;;8.20;99.90;;;7.35;77.47;96806.81;10497374;28;1906;-75
2021/11/06 11:07:28;;;;;;;;;;;8.20;99.90;;;7.46;76.99;96800.69;10538702;28;1136;-75
2021/11/06 11:12:31;;;;;;;;;;;8.30;99.90;;;7.56;75.80;96803.59;10540715;28;1081;-75
2021/11/06 11:17:34;;;;;;;;;;;8.50;99.90;;;7.63;75.73;96795.47;10522578;28;1356;-75
2021/11/06 11:22:37;;;;;;;;;;;8.50;99.90;;;7.90;73.04;96794.03;10539943;28;1890;-74
2021/11/06 11:27:40;;;;;;;;;;;8.70;99.90;;;7.94;71.55;96786.34;10526063;28;1026;-74
2021/11/06 11:32:42;;;;;;;;;;;8.70;99.90;;;8.12;71.40;96780.88;10523929;28;1310;-75
2021/11/06 11:37:45;;;;;;;;;;;8.80;99.90;;;8.32;71.13;96775.16;10482504;28;1478;-75
2021/11/06 11:42:48;;;;;;;;;;;8.90;99.90;;;8.84;69.50;96767.16;10476149;28;1906;-75
2021/11/06 11:47:51;;;;;;;;;;;9.40;99.90;;;8.92;68.35;96762.25;10475467;28;1404;-75
2021/11/06 11:52:54;;;;;;;;;;;9.70;99.90;;;8.68;70.66;96759.88;10487370;28;1268;-75
2021/11/06 11:58:01;;;;;;;;;;;9.60;99.90;;;8.39;70.77;96760.59;10492443;28;1965;-76
2021/11/06 12:03:03;;;;;;;;;;;9.50;99.90;;;8.11;72.09;96749.78;10492437;28;1291;-75
2021/11/06 12:08:06;;;;;;;;;;;9.30;99.90;;;7.60;73.82;96753.94;10492260;28;985;-75
2021/11/06 12:13:09;;;;;;;;;;;8.90;99.90;;;7.39;74.54;96733.91;10492379;28;1177;-76
2021/11/06 12:18:12;;;;;;;;;;;8.60;99.90;;;7.53;72.81;96724.63;10474291;28;1983;-75
2021/11/06 12:23:15;;;;;;;;;;;8.50;99.90;;;7.85;70.15;96716.28;10489546;28;1220;-75
2021/11/06 12:28:18;;;;;;;;;;;8.60;99.90;;;8.11;68.72;96713.09;10490956;28;1070;-76
2021/11/06 12:33:21;;;;;;;;;;;8.80;99.90;;;8.04;66.94;96703.56;10489797;28;1313;-75
2021/11/06 12:38:24;;;;;;;;;;;9.00;99.90;;;7.92;69.71;96695.53;10490324;28;1910;-75
2021/11/06 12:43:27;;;;;;;;;;;9.00;99.90;;;7.96;69.72;96685.19;10493296;28;1271;-75
2021/11/06 12:48:30;;;;;;;;;;;9.00;99.90;;;7.76;69.69;96685.53;10490169;28;820;-75
2021/11/06 12:53:33;;;;;;;;;;;8.90;99.90;;;7.66;70.77;96682.63;10493355;28;1342;-75
2021/11/06 12:58:36;;;;;;;;;;;8.80;99.90;;;7.66;69.90;96680.78;10492242;28;1886;-76
2021/11/06 13:03:38;;;;;;;;;;;8.70;99.90;;;7.66;69.74;96688.00;10490463;28;1296;-76
2021/11/06 13:08:41;;;;;;;;;;;8.60;99.90;;;7.89;69.08;96679.97;10475062;28;1275;-76
2021/11/06 13:13:45;;;;;;;;;;;8.70;99.90;;;8.28;68.91;96678.38;10491765;28;1268;-74
2021/11/06 13:18:48;;;;;;;;;;;9.00;99.90;;;8.29;70.20;96673.84;10471625;28;1910;-75
2021/11/06 13:23:51;;;;;;;;;;;9.20;99.90;;;8.12;70.44;96663.84;10489907;28;1232;-76
2021/11/06 13:28:54;;;;;;;;;;;9.10;99.90;;;7.80;72.33;96649.22;10489471;28;794;-76
2021/11/06 13:33:56;;;;;;;;;;;8.90;99.90;;;8.10;71.74;96655.25;10470121;28;1346;-76
2021/11/06 13:39:02;;;;;;;;;;;9.00;99.90;;;7.94;72.63;96645.25;10485784;28;1977;-76
2021/11/06 13:44:06;;;;;;;;;;;9.00;99.90;;;8.05;71.38;96648.97;10487157;28;1229;-76
2021/11/06 13:49:09;;;;;;;;;;;9.00;99.90;;;7.86;73.14;96646.44;10486106;28;780;-76
2021/11/06 13:54:13;;;;;;;;;;;9.00;99.90;;;8.05;70.32;96647.09;10470325;28;1531;-76
2021/11/06 13:59:16;;;;;;;;;;;9.00;99.90;;;7.82;68.57;96647.13;10470173;28;1980;-75
2021/11/06 14:04:19;;;;;;;;;;;8.90;99.90;;;7.66;68.94;96642.50;10488318;28;1201;-76
2021/11/06 14:09:22;;;;;;;;;;;8.70;99.90;;;7.56;69.50;96637.72;10489316;28;717;-75
2021/11/06 14:14:24;;;;;;;;;;;8.60;99.90;;;7.48;70.92;96646.91;10473464;28;1220;-75
2021/11/06 14:19:27;;;;;;;;;;;8.60;99.90;;;7.39;71.18;96645.66;10495321;28;1906;-77
2021/11/06 14:24:30;;;;;;;;;;;8.50;99.90;;;7.25;71.94;96637.03;10495415;28;1319;-76
2021/11/06 14:29:34;;;;;;;;;;;8.40;99.90;;;7.14;73.85;96634.34;10495098;28;839;-76
2021/11/06 14:34:37;;;;;;;;;;;8.30;99.90;;;7.01;74.45;96636.19;10492558;28;1220;-76
2021/11/06 14:39:40;;;;;;;;;;;8.10;99.90;;;7.00;75.43;96639.91;10493785;28;1976;-75
2021/11/06 14:44:45;;;;;;;;;;;8.10;99.90;;;6.94;75.60;96637.34;10474390;28;1360;-75
2021/11/06 14:49:48;;;;;;;;;;;8.00;99.90;;;6.87;76.41;96639.25;10493712;28;989;-75
2021/11/06 14:54:51;;;;;;;;;;;7.90;99.90;;;6.80;75.94;96630.53;10477670;28;1321;-75
2021/11/06 14:59:54;;;;;;;;;;;7.90;99.90;;;6.76;75.60;96630.19;10491022;28;1934;-74
2021/11/06 15:04:57;;;;;;;;;;;7.80;99.90;;;6.70;75.48;96634.59;10494595;28;1337;-76
2021/11/06 15:10:00;;;;;;;;;;;7.80;99.90;;;6.60;75.46;96630.81;10493224;28;965;-76
2021/11/06 15:15:03;;;;;;;;;;;7.80;99.90;;;6.52;76.14;96629.31;10491597;28;1572;-76
2021/11/06 15:20:05;;;;;;;;;;;7.60;99.90;;;6.33;77.90;96627.72;10475605;28;1914;-76
2021/11/06 15:25:08;;;;;;;;;;;7.50;99.90;;;6.27;78.45;96624.09;10491451;28;1268;-76
2021/11/06 15:30:11;;;;;;;;;;;7.40;99.90;;;6.18;78.71;96615.59;10493177;28;1129;-76
2021/11/06 15:35:14;;;;;;;;;;;7.30;99.90;;;6.11;79.82;96616.72;10473541;28;1252;-76
2021/11/06 15:40:17;;;;;;;;;;;7.20;99.90;;;5.91;81.86;96614.25;10491902;28;1909;-75
2021/11/06 15:45:20;;;;;;;;;;;7.10;99.90;;;5.76;83.07;96617.28;10473269;28;1315;-75
2021/11/06 15:50:23;;;;;;;;;;;7.00;99.90;;;5.76;84.51;96622.63;10491894;28;828;-75
2021/11/06 15:55:26;;;;;;;;;;;6.90;99.90;;;5.63;85.20;96618.25;10492851;28;1299;-75
2021/11/06 16:00:29;;;;;;;;;;;6.80;99.90;;;5.46;87.34;96616.38;10492982;28;1964;-77
2021/11/06 16:05:32;;;;;;;;;;;6.70;99.90;;;5.30;88.24;96615.91;10490694;28;1200;-75
2021/11/06 16:10:35;;;;;;;;;;;6.60;99.90;;;5.33;90.25;96610.13;10474141;28;1633;-76
2021/11/06 16:15:41;;;;;;;;;;;6.50;99.90;;;5.37;92.22;96619.31;10473607;28;1370;-75
2021/11/06 16:20:47;;;;;;;;;;;6.40;99.90;;;5.30;97.58;96620.44;10474180;28;1992;-75
2021/11/06 16:25:50;;;;;;;;;;;6.40;99.90;;;5.15;100.00;96620.75;10491543;28;1322;-76
2021/11/06 16:30:53;;;;;;;;;;;6.30;99.90;;;4.98;100.00;96623.16;10491936;28;1066;-74
2021/11/06 16:35:56;;;;;;;;;;;6.20;99.90;;;4.83;100.00;96619.97;10488773;28;1221;-75
2021/11/06 16:40:59;;;;;;;;;;;6.10;99.90;;;4.82;100.00;96621.84;10490129;28;1985;-76
2021/11/06 16:46:02;;;;;;;;;;;6.00;99.90;;;4.55;100.00;96626.53;10469411;28;1422;-76
2021/11/06 16:51:05;;;;;;;;;;;5.80;99.90;;;4.50;100.00;96626.34;10470569;28;1341;-75
2021/11/06 16:56:08;;;;;;;;;;;5.70;99.90;;;4.45;100.00;96618.19;10484694;28;1201;-74
2021/11/06 17:01:11;;;;;;;;;;;5.60;99.90;;;4.46;100.00;96616.38;10491632;28;1909;-76
2021/11/06 17:06:15;;;;;;;;;;;5.60;99.90;;;4.33;100.00;96623.41;10490064;28;1217;-75
2021/11/06 17:11:18;;;;;;;;;;;5.50;99.90;;;4.20;100.00;96620.81;10491129;28;741;-76
2021/11/06 17:16:21;;;;;;;;;;;5.30;99.90;;;4.08;100.00;96617.19;10488561;28;1296;-75
2021/11/06 17:21:24;;;;;;;;;;;5.30;99.90;;;4.01;100.00;96616.41;10470678;28;1914;-76
2021/11/06 17:26:27;;;;;;;;;;;5.20;99.90;;;3.93;100.00;96612.09;10478563;28;1197;-74
2021/11/06 17:31:30;;;;;;;;;;;5.10;99.90;;;3.74;100.00;96616.47;10481763;28;966;-76
2021/11/06 17:36:33;;;;;;;;;;;5.00;99.90;;;3.71;100.00;96619.56;10466765;28;1267;-75
2021/11/06 17:41:36;;;;;;;;;;;4.90;99.90;;;3.66;100.00;96627.34;10487192;28;1982;-76
2021/11/06 17:46:42;;;;;;;;;;;4.80;99.90;;;3.57;100.00;96627.78;10466483;28;1232;-76
2021/11/06 17:51:57;;;;;;;;;;;4.70;99.90;;;3.41;100.00;96624.53;10489357;28;950;-76
2021/11/06 17:57:01;;;;;;;;;;;4.60;99.90;;;3.40;100.00;96628.22;10489581;28;1244;-76
2021/11/06 18:02:04;;;;;;;;;;;4.60;99.90;;;3.38;100.00;96618.84;10490698;28;1981;-75
2021/11/06 18:07:07;;;;;;;;;;;4.60;99.90;;;3.34;100.00;96613.09;10493645;28;1291;-76
2021/11/06 18:12:10;;;;;;;;;;;4.60;99.90;;;3.31;100.00;96613.53;10495282;28;975;-77
2021/11/06 18:17:13;;;;;;;;;;;4.50;99.90;;;3.36;100.00;96612.91;10496654;28;1177;-76
2021/11/06 18:22:16;;;;;;;;;;;4.40;99.90;;;3.35;100.00;96609.41;10490331;28;1914;-76
2021/11/06 18:27:19;;;;;;;;;;;4.40;99.90;;;3.36;100.00;96604.91;10489152;28;1225;-75
2021/11/06 18:32:22;;;;;;;;;;;4.50;99.90;;;3.45;100.00;96593.88;10493300;28;808;-75
2021/11/06 18:37:25;;;;;;;;;;;4.40;99.90;;;3.47;100.00;96597.13;10493377;28;1271;-76
2021/11/06 18:42:29;;;;;;;;;;;4.50;99.90;;;3.56;100.00;96581.75;10494044;28;1902;-76
2021/11/06 18:47:34;;;;;;;;;;;4.60;99.90;;;3.60;100.00;96582.16;10492485;28;1157;-77
2021/11/06 18:52:36;;;;;;;;;;;4.60;99.90;;;3.44;100.00;96581.63;10493758;28;1101;-76
2021/11/06 18:57:43;;;;;;;;;;;4.60;99.90;;;3.37;100.00;96580.81;10496157;28;1086;-76
2021/11/06 19:02:47;;;;;;;;;;;4.50;99.90;;;3.27;100.00;96569.78;10481783;28;1973;-76
2021/11/06 19:07:49;;;;;;;;;;;4.40;99.90;;;3.28;100.00;96570.59;10508163;28;776;-76
2021/11/06 19:12:52;;;;;;;;;;;4.40;99.90;;;3.20;100.00;96561.03;10487386;28;1353;-75
2021/11/06 19:17:55;;;;;;;;;;;4.40;99.90;;;3.04;100.00;96556.94;10486837;28;1357;-75
2021/11/06 19:22:58;;;;;;;;;;;4.30;99.90;;;2.91;100.00;96565.75;10505210;28;1887;-76
2021/11/06 19:28:01;;;;;;;;;;;4.20;99.90;;;2.79;100.00;96570.03;10488516;28;1228;-76
2021/11/06 19:33:04;;;;;;;;;;;4.10;99.90;;;2.86;100.00;96578.00;10498889;28;1330;-77
2021/11/06 19:38:07;;;;;;;;;;;4.10;99.90;;;2.76;100.00;96561.69;10493145;28;1089;-77
2021/11/06 19:43:10;;;;;;;;;;;4.10;99.90;;;2.80;100.00;96562.91;10493308;28;1906;-76
2021/11/06 19:48:13;;;;;;;;;;;3.90;99.90;;;2.79;100.00;96558.59;10491819;28;851;-76
2021/11/06 19:53:15;;;;;;;;;;;3.90;99.90;;;2.50;100.00;96565.16;10491449;28;1354;-76
2021/11/06 19:58:18;;;;;;;;;;;3.80;99.90;;;2.51;100.00;96558.81;10493096;28;1030;-76
2021/11/06 20:03:21;;;;;;;;;;;3.60;99.90;;;2.58;100.00;96559.66;10491838;28;1957;-76
2021/11/06 20:08:24;;;;;;;;;;;3.70;99.90;;;2.62;100.00;96551.06;10475136;28;1376;-76
2021/11/06 20:13:27;;;;;;;;;;;3.70;99.90;;;2.70;100.00;96555.34;10490323;28;1280;-76
2021/11/06 20:18:30;;;;;;;;;;;3.70;99.90;;;2.63;100.00;96547.41;10473527;28;1208;-76
2021/11/06 20:23:33;;;;;;;;;;;3.70;99.90;;;2.64;100.00;96533.09;10492210;28;1913;-76
2021/11/06 20:28:36;;;;;;;;;;;3.70;99.90;;;2.69;100.00;96541.28;10492182;28;1057;-76
2021/11/06 20:33:39;;;;;;;;;;;3.70;99.90;;;2.70;100.00;96534.94;10492315;28;1299;-77
2021/11/06 20:38:42;;;;;;;;;;;3.70;99.90;;;2.85;100.00;96525.94;10474648;28;1492;-75
2021/11/06 20:43:49;;;;;;;;;;;3.80;99.90;;;2.85;100.00;96513.47;10473769;28;1993;-76
2021/11/06 20:48:52;;;;;;;;;;;3.80;99.90;;;2.86;100.00;96516.94;10489725;28;808;-75
2021/11/06 20:53:55;;;;;;;;;;;3.80;99.90;;;2.87;100.00;96514.09;10489964;28;1270;-76
2021/11/06 20:58:59;;;;;;;;;;;3.90;99.90;;;2.78;100.00;96517.16;10490129;28;1137;-76
2021/11/06 21:04:02;;;;;;;;;;;3.80;99.90;;;2.59;100.00;96498.38;10487353;28;1918;-75
2021/11/06 21:09:08;;;;;;;;;;;3.70;99.90;;;2.67;100.00;96479.63;10488698;28;721;-77
2021/11/06 21:19:37;;;;;;;;;;;3.70;99.90;;;2.84;100.00;96479.16;10429981;28;1072;-76
2021/11/06 21:24:41;;;;;;;;;;;3.80;99.90;;;2.92;100.00;96477.09;10468912;28;1922;-75
2021/11/06 21:29:44;;;;;;;;;;;3.80;99.90;;;2.86;100.00;96467.31;10469246;28;1467;-77
2021/11/06 21:34:52;;;;;;;;;;;3.80;99.90;;;2.84;100.00;96463.22;10467265;28;1418;-77
2021/11/06 21:39:56;;;;;;;;;;;3.90;99.90;;;2.78;100.00;96453.44;10487120;28;698;-77
2021/11/06 21:44:58;;;;;;;;;;;3.80;99.90;;;2.78;100.00;96454.25;10485064;28;1914;-76
2021/11/06 21:50:04;;;;;;;;;;;3.70;99.90;;;2.62;100.00;96470.63;10483347;28;815;-77
2021/11/06 21:55:08;;;;;;;;;;;3.70;99.90;;;2.48;100.00;96464.50;10485399;28;1232;-75
2021/11/06 22:00:11;;;;;;;;;;;3.70;99.90;;;2.65;100.00;96454.28;10481689;28;835;-77
2021/11/06 22:05:15;;;;;;;;;;;3.70;99.90;;;2.76;100.00;96447.53;10463632;28;1938;-77
2021/11/06 22:10:18;;;;;;;;;;;3.70;99.90;;;2.52;100.00;96438.38;10468058;28;966;-76
2021/11/06 22:15:21;;;;;;;;;;;3.60;99.90;;;2.43;100.00;96435.94;10466605;28;1501;-79
2021/11/06 22:20:29;;;;;;;;;;;3.50;99.90;;;2.66;100.00;96443.44;10485499;28;800;-76
2021/11/06 22:25:32;;;;;;;;;;;3.60;99.90;;;2.85;100.00;96439.13;10485806;28;1914;-76
2021/11/06 22:30:35;;;;;;;;;;;3.80;99.90;;;3.09;100.00;96434.16;10485138;28;797;-76
2021/11/06 22:35:40;;;;;;;;;;;3.90;99.90;;;3.14;100.00;96427.19;10494259;28;1217;-77
2021/11/06 22:40:43;;;;;;;;;;;4.00;99.90;;;3.17;100.00;96439.22;10502412;28;1906;-77
2021/11/06 22:45:46;;;;;;;;;;;4.10;99.90;;;3.19;100.00;96437.19;10481802;28;1386;-76
2021/11/06 22:50:49;;;;;;;;;;;4.10;99.90;;;3.21;100.00;96451.88;10502799;28;1039;-77
2021/11/06 22:55:54;;;;;;;;;;;4.20;99.90;;;3.22;100.00;96424.28;10493404;28;1295;-76
2021/11/06 23:00:58;;;;;;;;;;;4.20;99.90;;;3.27;100.00;96420.19;10493412;28;1969;-76
2021/11/06 23:06:04;;;;;;;;;;;4.10;99.90;;;3.20;100.00;96425.53;10474393;28;1364;-75
2021/11/06 23:11:09;;;;;;;;;;;4.20;99.90;;;2.95;100.00;96417.44;10493384;28;803;-77
2021/11/06 23:16:12;;;;;;;;;;;4.00;99.90;;;2.89;100.00;96407.66;10490459;28;1181;-76
2021/11/06 23:21:15;;;;;;;;;;;4.10;99.90;;;2.82;100.00;96410.34;10492402;28;1918;-77
2021/11/06 23:26:18;;;;;;;;;;;3.90;99.90;;;2.52;100.00;96410.00;10491746;28;1217;-76
2021/11/06 23:31:21;;;;;;;;;;;3.60;99.90;;;2.37;100.00;96406.78;10491355;28;875;-77
2021/11/06 23:36:24;;;;;;;;;;;3.50;99.90;;;2.38;100.00;96401.25;10492279;28;1336;-75
2021/11/06 23:41:27;;;;;;;;;;;3.40;99.90;;;2.44;100.00;96396.97;10474251;28;1901;-76
2021/11/06 23:46:30;;;;;;;;;;;3.40;99.90;;;2.31;100.00;96397.78;10487684;28;1312;-76